X  Close Metar Aviation Weather Data     LGRX Patras Araxos Agamemnon Airport
Temperature
0°C Temperature
-1°C Dewpoint
93% Humidity



Wind
0 MPH
0 KM/H
0 M/S
0 KTS



Calm
N
Current Conditions

Clear Clear
Pressure 1021.92 (hPa) - 30.18 (inHg)
Visibility 6.2 (mile) - 10 (km)
Airport
Airport-code LGRX

Location: Patras Araxos Agamemnon Airport
Distance: 108 (mi)

Metar:
LGRX 020150Z 00000KT CAVOK 00/M01 Q1022

Time: 02-02-2023 03:50 EET